Portada
METAR-TAF:

METAR-TAF

Aeropuertos :

Coles County Memorial Airport

Mattoon / Charleston, Illinois, Estados Unidos

latitud: 39-28-41N, longitud: 088-16-45W, altitud: 220 m

Observación

El informe se hizo hace 12 minutos, a las 14:53 UTC
Viento 5 kt del oeste-suroeste
Temperatura 29°C
Humedad 62%
Presión 1026 hPa
Visibilidad: 16.1 km
Cielo despejado

METAR: KMTO 201453Z AUTO 24005KT 10SM CLR 29/21 A3031 RMK AO2 SLP257 T02940211 50007

Hora: 10:05 (15:05 UTC)


TAF: falta

Observaciones y pronósticos meteorológicos de más de 4000 aeropuertos (mensajes METAR y TAF).

Los puntos amarillos y rojos representan las estaciones disponibles.

Ponga el ratón en el punto deseado para ver el nombre de la estación.

Haga clic para ver las observaciones y los pronósticos meteorológicos.

Para cambiar el mapa : haga clic en los botones verdes con una cruz de color negro para hacer un zoom, en el botón verde con un guión para alejar o en las flechas verdes para mapas adyacentes.


METAR-TAF: